createdAt,value
2019-03-06T00:00:34.437Z,1001.84
2019-03-06T00:01:35.788Z,1001.89
2019-03-06T00:02:34.490Z,1001.85
2019-03-06T00:03:34.506Z,1001.83
2019-03-06T00:04:34.531Z,1001.75
2019-03-06T00:05:34.553Z,1001.80
2019-03-06T00:06:34.579Z,1001.79
2019-03-06T00:07:34.601Z,1001.77
2019-03-06T00:08:34.637Z,1001.79
2019-03-06T00:09:34.669Z,1001.75
2019-03-06T00:10:35.985Z,1001.80
2019-03-06T00:11:34.696Z,1001.79
2019-03-06T00:12:34.717Z,1001.81
2019-03-06T00:13:34.741Z,1001.81
2019-03-06T00:14:34.795Z,1001.79
2019-03-06T00:15:34.793Z,1001.80
2019-03-06T00:16:34.814Z,1001.80
2019-03-06T00:17:34.837Z,1001.78
2019-03-06T00:18:34.860Z,1001.76
2019-03-06T00:19:34.887Z,1001.71
2019-03-06T00:20:34.921Z,1001.73
2019-03-06T00:21:34.956Z,1001.78
2019-03-06T00:22:34.957Z,1001.72
2019-03-06T00:23:34.976Z,1001.75
2019-03-06T00:24:35.023Z,1001.75
2019-03-06T00:25:35.030Z,1001.77
2019-03-06T00:26:35.074Z,1001.75
2019-03-06T00:27:35.075Z,1001.78
2019-03-06T00:28:35.110Z,1001.74
2019-03-06T00:29:35.123Z,1001.73
2019-03-06T00:30:35.349Z,1001.78
2019-03-06T00:31:35.209Z,1001.74
2019-03-06T00:32:35.200Z,1001.73
2019-03-06T00:33:35.218Z,1001.72
2019-03-06T00:34:35.238Z,1001.73
2019-03-06T00:35:35.263Z,1001.76
2019-03-06T00:36:35.293Z,1001.73
2019-03-06T00:37:35.964Z,1001.78
2019-03-06T00:38:35.537Z,1001.74
2019-03-06T00:39:35.366Z,1001.69
2019-03-06T00:40:35.382Z,1001.68
2019-03-06T00:41:35.859Z,1001.66
2019-03-06T00:42:35.438Z,1001.61
2019-03-06T00:43:35.535Z,1001.65
2019-03-06T00:44:35.928Z,1001.60
2019-03-06T00:45:35.504Z,1001.64
2019-03-06T00:46:35.525Z,1001.61
2019-03-06T00:47:35.849Z,1001.62
2019-03-06T00:48:35.582Z,1001.63
2019-03-06T00:49:36.246Z,1001.63
2019-03-06T00:50:35.622Z,1001.65
2019-03-06T00:51:35.961Z,1001.64
2019-03-06T00:52:35.666Z,1001.62
2019-03-06T00:53:35.691Z,1001.67
2019-03-06T00:54:35.714Z,1001.67
2019-03-06T00:55:35.738Z,1001.62
2019-03-06T00:56:35.763Z,1001.67
2019-03-06T00:57:35.790Z,1001.62
2019-03-06T00:58:35.824Z,1001.64
2019-03-06T00:59:35.836Z,1001.66
2019-03-06T01:00:35.861Z,1001.62
2019-03-06T01:01:35.897Z,1001.61
2019-03-06T01:02:36.355Z,1001.66
2019-03-06T01:03:35.930Z,1001.65
2019-03-06T01:04:35.954Z,1001.70
2019-03-06T01:05:36.378Z,1001.64
2019-03-06T01:06:36.000Z,1001.63
2019-03-06T01:07:36.026Z,1001.65
2019-03-06T01:08:36.064Z,1001.62
2019-03-06T01:09:36.077Z,1001.65
2019-03-06T01:10:36.099Z,1001.60
2019-03-06T01:11:36.719Z,1001.63
2019-03-06T01:12:36.148Z,1001.60
2019-03-06T01:13:36.201Z,1001.64
2019-03-06T01:14:36.194Z,1001.60
2019-03-06T01:15:36.217Z,1001.66
2019-03-06T01:16:36.841Z,1001.63
2019-03-06T01:17:36.264Z,1001.61
2019-03-06T01:18:36.287Z,1001.63
2019-03-06T01:19:36.817Z,1001.57
2019-03-06T01:20:36.352Z,1001.56
2019-03-06T01:21:36.358Z,1001.50
2019-03-06T01:22:36.379Z,1001.51
2019-03-06T01:23:37.963Z,1001.45
2019-03-06T01:24:36.430Z,1001.43
2019-03-06T01:25:36.456Z,1001.40
2019-03-06T01:26:36.479Z,1001.35
2019-03-06T01:27:36.499Z,1001.35
2019-03-06T01:28:36.523Z,1001.32
2019-03-06T01:29:36.563Z,1001.29
2019-03-06T01:30:36.569Z,1001.31
2019-03-06T01:31:36.592Z,1001.32
2019-03-06T01:32:36.617Z,1001.29
2019-03-06T01:33:36.643Z,1001.27
2019-03-06T01:34:36.664Z,1001.29
2019-03-06T01:35:36.689Z,1001.29
2019-03-06T01:36:36.720Z,1001.24
2019-03-06T01:37:36.735Z,1001.21
2019-03-06T01:38:36.763Z,1001.23
2019-03-06T01:39:36.781Z,1001.20
2019-03-06T01:40:36.808Z,1001.19
2019-03-06T01:41:36.829Z,1001.22
2019-03-06T01:42:36.852Z,1001.17
2019-03-06T01:43:38.292Z,1001.19
2019-03-06T01:44:36.902Z,1001.14
2019-03-06T01:45:36.932Z,1001.20
2019-03-06T01:46:36.950Z,1001.22
2019-03-06T01:47:37.004Z,1001.21
2019-03-06T01:48:37.026Z,1001.21
2019-03-06T01:49:37.022Z,1001.13
2019-03-06T01:50:37.042Z,1001.11
2019-03-06T01:51:37.068Z,1001.13
2019-03-06T01:52:37.092Z,1001.18
2019-03-06T01:53:37.114Z,1001.16
2019-03-06T01:54:37.144Z,1001.17
2019-03-06T01:55:37.176Z,1001.20
2019-03-06T01:56:37.184Z,1001.16
2019-03-06T01:57:37.211Z,1001.22
2019-03-06T01:58:37.241Z,1001.17
2019-03-06T01:59:37.301Z,1001.15
2019-03-06T02:00:37.484Z,1001.13
2019-03-06T02:01:37.310Z,1001.07
2019-03-06T02:02:37.327Z,1001.08
2019-03-06T02:03:38.890Z,1001.12
2019-03-06T02:04:37.373Z,1001.08
2019-03-06T02:05:37.419Z,1001.08
2019-03-06T02:06:37.425Z,1001.10
2019-03-06T02:07:37.450Z,1001.14
2019-03-06T02:08:37.510Z,1001.09
2019-03-06T02:09:37.492Z,1001.09
2019-03-06T02:10:37.533Z,1001.01
2019-03-06T02:11:37.539Z,1000.99
2019-03-06T02:12:37.565Z,1000.97
2019-03-06T02:13:37.588Z,1000.94
2019-03-06T02:14:37.673Z,1000.90
2019-03-06T02:15:37.633Z,1000.89
2019-03-06T02:16:37.668Z,1000.82
2019-03-06T02:17:38.695Z,1000.85
2019-03-06T02:18:37.707Z,1000.84
2019-03-06T02:19:37.727Z,1000.89
2019-03-06T02:20:37.759Z,1000.84
2019-03-06T02:21:37.777Z,1000.87
2019-03-06T02:22:37.801Z,1000.87
2019-03-06T02:23:37.823Z,1000.83
2019-03-06T02:24:37.845Z,1000.80
2019-03-06T02:25:37.873Z,1000.79
2019-03-06T02:26:37.912Z,1000.70
2019-03-06T02:27:37.922Z,1000.66
2019-03-06T02:28:37.940Z,1000.68
2019-03-06T02:29:37.964Z,1000.71
2019-03-06T02:30:37.991Z,1000.61
2019-03-06T02:31:38.011Z,1000.64
2019-03-06T02:32:38.036Z,1000.60
2019-03-06T02:33:38.110Z,1000.60
2019-03-06T02:34:38.086Z,1000.60
2019-03-06T02:35:38.115Z,1000.59
2019-03-06T02:36:38.144Z,1000.59
2019-03-06T02:37:38.163Z,1000.55
2019-03-06T02:38:38.180Z,1000.56
2019-03-06T02:39:38.205Z,1000.58
2019-03-06T02:40:38.230Z,1000.51
2019-03-06T02:41:38.254Z,1000.57
2019-03-06T02:42:38.300Z,1000.50
2019-03-06T02:43:38.302Z,1000.47
2019-03-06T02:44:40.130Z,1000.44
2019-03-06T02:45:38.348Z,1000.43
2019-03-06T02:46:38.402Z,1000.38
2019-03-06T02:47:38.396Z,1000.34
2019-03-06T02:48:38.421Z,1000.37
2019-03-06T02:49:38.443Z,1000.36
2019-03-06T02:50:38.483Z,1000.38
2019-03-06T02:51:38.512Z,1000.30
2019-03-06T02:52:38.522Z,1000.28
2019-03-06T02:53:38.552Z,1000.27
2019-03-06T02:54:38.584Z,1000.23
2019-03-06T02:55:38.588Z,1000.24
2019-03-06T02:56:38.625Z,1000.25
2019-03-06T02:57:38.642Z,1000.25
2019-03-06T02:58:38.657Z,1000.24
2019-03-06T02:59:38.688Z,1000.25
2019-03-06T03:00:38.745Z,1000.33
2019-03-06T03:01:38.730Z,1000.32
2019-03-06T03:02:38.751Z,1000.31
2019-03-06T03:03:38.772Z,1000.30
2019-03-06T03:04:38.802Z,1000.32
2019-03-06T03:05:38.838Z,1000.26
2019-03-06T03:06:38.845Z,1000.19
2019-03-06T03:07:38.868Z,1000.19
2019-03-06T03:08:38.900Z,1000.21
2019-03-06T03:09:38.919Z,1000.25
2019-03-06T03:10:39.060Z,1000.29
2019-03-06T03:11:38.969Z,1000.19
2019-03-06T03:12:38.990Z,1000.14
2019-03-06T03:13:39.015Z,1000.14
2019-03-06T03:14:39.037Z,1000.12
2019-03-06T03:15:39.089Z,1000.07
2019-03-06T03:16:39.087Z,1000.08
2019-03-06T03:17:39.108Z,1000.04
2019-03-06T03:18:39.129Z,1000.04
2019-03-06T03:19:39.161Z,1000.04
2019-03-06T03:20:39.187Z,1000.01
2019-03-06T03:21:39.235Z,999.98
2019-03-06T03:22:39.238Z,999.96
2019-03-06T03:23:39.250Z,999.99
2019-03-06T03:24:39.298Z,999.98
2019-03-06T03:25:39.298Z,999.92
2019-03-06T03:26:39.323Z,999.93
2019-03-06T03:27:39.343Z,999.87
2019-03-06T03:28:39.368Z,999.92
2019-03-06T03:29:39.392Z,999.91
2019-03-06T03:30:39.413Z,999.84
2019-03-06T03:31:39.453Z,999.88
2019-03-06T03:32:39.459Z,999.84
2019-03-06T03:33:39.486Z,999.77
2019-03-06T03:34:39.525Z,999.76
2019-03-06T03:35:39.529Z,999.76
2019-03-06T03:36:39.578Z,999.67
2019-03-06T03:37:39.579Z,999.66
2019-03-06T03:38:39.601Z,999.66
2019-03-06T03:39:39.626Z,999.65
2019-03-06T03:40:39.652Z,999.60
2019-03-06T03:41:39.672Z,999.57
2019-03-06T03:42:39.696Z,999.55
2019-03-06T03:43:39.724Z,999.54
2019-03-06T03:44:39.741Z,999.52
2019-03-06T03:45:39.767Z,999.55
2019-03-06T03:46:39.792Z,999.56
2019-03-06T03:47:39.818Z,999.55
2019-03-06T03:48:39.835Z,999.52
2019-03-06T03:49:39.866Z,999.56
2019-03-06T03:50:39.888Z,999.55
2019-03-06T03:51:39.906Z,999.58
2019-03-06T03:52:39.938Z,999.62
2019-03-06T03:53:39.966Z,999.63
2019-03-06T03:54:39.993Z,999.66
2019-03-06T03:55:40.123Z,999.61
2019-03-06T03:56:40.025Z,999.58
2019-03-06T03:57:40.062Z,999.49
2019-03-06T03:58:40.075Z,999.49
2019-03-06T03:59:40.097Z,999.50
2019-03-06T04:00:40.154Z,999.48
2019-03-06T04:01:40.144Z,999.45
2019-03-06T04:02:40.168Z,999.39
2019-03-06T04:03:40.191Z,999.38
2019-03-06T04:04:40.213Z,999.33
2019-03-06T04:05:40.245Z,999.28
2019-03-06T04:06:40.262Z,999.31
2019-03-06T04:07:40.287Z,999.35
2019-03-06T04:08:40.306Z,999.32
2019-03-06T04:09:40.533Z,999.32
2019-03-06T04:10:40.401Z,999.23
2019-03-06T04:11:40.388Z,999.31
2019-03-06T04:12:40.402Z,999.36
2019-03-06T04:13:40.437Z,999.33
2019-03-06T04:14:40.458Z,999.29
2019-03-06T04:15:40.487Z,999.29
2019-03-06T04:16:40.495Z,999.38
2019-03-06T04:17:40.529Z,999.35
2019-03-06T04:18:40.541Z,999.37
2019-03-06T04:19:40.563Z,999.32
2019-03-06T04:20:40.587Z,999.29
2019-03-06T04:21:40.621Z,999.31
2019-03-06T04:22:40.638Z,999.28
2019-03-06T04:23:40.657Z,999.29
2019-03-06T04:24:40.690Z,999.30
2019-03-06T04:25:40.713Z,999.30
2019-03-06T04:26:40.745Z,999.37
2019-03-06T04:27:40.757Z,999.33
2019-03-06T04:28:40.775Z,999.38
2019-03-06T04:29:40.802Z,999.36
2019-03-06T04:30:40.833Z,999.36
2019-03-06T04:31:41.064Z,999.39
2019-03-06T04:32:40.910Z,999.33
2019-03-06T04:33:40.894Z,999.35
2019-03-06T04:34:40.920Z,999.37
2019-03-06T04:35:40.942Z,999.34
2019-03-06T04:36:40.984Z,999.38
2019-03-06T04:37:40.990Z,999.36
2019-03-06T04:38:41.014Z,999.35
2019-03-06T04:39:41.044Z,999.37
2019-03-06T04:40:41.073Z,999.36
2019-03-06T04:41:41.081Z,999.42
2019-03-06T04:42:41.126Z,999.35
2019-03-06T04:43:41.128Z,999.34
2019-03-06T04:44:41.152Z,999.39
2019-03-06T04:45:41.179Z,999.37
2019-03-06T04:46:41.202Z,999.37
2019-03-06T04:47:41.232Z,999.39
2019-03-06T04:48:41.251Z,999.25
2019-03-06T04:49:41.273Z,999.33
2019-03-06T04:50:41.297Z,999.28
2019-03-06T04:51:41.317Z,999.25
2019-03-06T04:52:41.361Z,999.28
2019-03-06T04:53:41.382Z,999.24
2019-03-06T04:54:41.401Z,999.19
2019-03-06T04:55:41.413Z,999.17
2019-03-06T04:56:41.439Z,999.20
2019-03-06T04:57:41.461Z,999.10
2019-03-06T04:58:41.503Z,999.09
2019-03-06T04:59:41.506Z,999.11
2019-03-06T05:00:41.530Z,999.05
2019-03-06T05:01:41.558Z,999.01
2019-03-06T05:02:41.579Z,999.03
2019-03-06T05:03:41.631Z,998.98
2019-03-06T05:04:41.640Z,998.97
2019-03-06T05:05:41.658Z,999.02
2019-03-06T05:06:42.885Z,998.97
2019-03-06T05:07:41.702Z,998.88
2019-03-06T05:08:41.722Z,998.90
2019-03-06T05:09:41.743Z,998.89
2019-03-06T05:10:41.772Z,998.89
2019-03-06T05:11:41.795Z,998.85
2019-03-06T05:12:41.822Z,998.91
2019-03-06T05:13:41.839Z,998.84
2019-03-06T05:14:41.863Z,998.82
2019-03-06T05:15:41.914Z,998.81
2019-03-06T05:16:44.532Z,998.77
2019-03-06T05:17:41.934Z,998.76
2019-03-06T05:18:41.961Z,998.70
2019-03-06T05:19:41.982Z,998.66
2019-03-06T05:20:43.234Z,998.66
2019-03-06T05:21:42.026Z,998.72
2019-03-06T05:22:42.050Z,998.73
2019-03-06T05:23:42.073Z,998.77
2019-03-06T05:24:42.097Z,998.83
2019-03-06T05:25:42.135Z,998.82
2019-03-06T05:26:42.162Z,998.81
2019-03-06T05:27:42.186Z,998.77
2019-03-06T05:28:42.193Z,998.76
2019-03-06T05:29:42.219Z,998.77
2019-03-06T05:30:42.241Z,998.71
2019-03-06T05:31:42.262Z,998.77
2019-03-06T05:32:42.288Z,998.72
2019-03-06T05:33:42.311Z,998.61
2019-03-06T05:34:42.337Z,998.57
2019-03-06T05:35:42.368Z,998.57
2019-03-06T05:36:42.384Z,998.57
2019-03-06T05:37:42.422Z,998.51
2019-03-06T05:38:42.431Z,998.57
2019-03-06T05:39:42.461Z,998.52
2019-03-06T05:40:42.484Z,998.53
2019-03-06T05:41:42.513Z,998.51
2019-03-06T05:42:42.524Z,998.53
2019-03-06T05:43:42.549Z,998.53
2019-03-06T05:44:42.572Z,998.51
2019-03-06T05:45:42.593Z,998.53
2019-03-06T05:46:42.620Z,998.52
2019-03-06T05:47:42.646Z,998.45
2019-03-06T05:48:42.665Z,998.41
2019-03-06T05:49:42.689Z,998.40
2019-03-06T05:50:42.722Z,998.40
2019-03-06T05:51:42.737Z,998.38
2019-03-06T05:52:42.762Z,998.37
2019-03-06T05:53:42.804Z,998.37
2019-03-06T05:54:42.809Z,998.33
2019-03-06T05:55:42.830Z,998.30
2019-03-06T05:56:42.859Z,998.32
2019-03-06T05:57:42.880Z,998.27
2019-03-06T05:58:42.910Z,998.33
2019-03-06T05:59:42.929Z,998.35
2019-03-06T06:00:42.951Z,998.33
2019-03-06T06:01:42.975Z,998.34
2019-03-06T06:02:42.996Z,998.22
2019-03-06T06:03:43.022Z,998.23
2019-03-06T06:04:43.045Z,998.16
2019-03-06T06:05:43.093Z,998.09
2019-03-06T06:06:43.105Z,998.05
2019-03-06T06:07:43.114Z,997.97
2019-03-06T06:08:43.460Z,997.98
2019-03-06T06:09:43.162Z,997.96
2019-03-06T06:10:43.190Z,997.85
2019-03-06T06:11:43.212Z,997.84
2019-03-06T06:12:43.279Z,997.88
2019-03-06T06:13:43.262Z,997.93
2019-03-06T06:14:43.279Z,997.92
2019-03-06T06:15:43.303Z,997.92
2019-03-06T06:16:43.331Z,997.90
2019-03-06T06:17:43.352Z,997.88
2019-03-06T06:18:43.380Z,997.81
2019-03-06T06:19:43.401Z,997.79
2019-03-06T06:20:43.425Z,997.79
2019-03-06T06:21:43.530Z,997.78
2019-03-06T06:22:43.478Z,997.70
2019-03-06T06:23:43.496Z,997.73
2019-03-06T06:24:43.520Z,997.75
2019-03-06T06:25:43.544Z,997.74
2019-03-06T06:26:43.569Z,997.75
2019-03-06T06:27:43.590Z,997.80
2019-03-06T06:28:43.620Z,997.70
2019-03-06T06:29:43.639Z,997.71
2019-03-06T06:30:43.665Z,997.80
2019-03-06T06:31:43.694Z,997.87
2019-03-06T06:32:43.715Z,997.89
2019-03-06T06:33:43.733Z,997.84
2019-03-06T06:34:43.760Z,997.82
2019-03-06T06:35:43.783Z,997.80
2019-03-06T06:36:43.805Z,997.80
2019-03-06T06:37:43.831Z,997.82
2019-03-06T06:38:43.853Z,997.75
2019-03-06T06:39:43.876Z,997.74
2019-03-06T06:40:43.899Z,997.84
2019-03-06T06:41:43.926Z,997.83
2019-03-06T06:42:43.950Z,997.80
2019-03-06T06:43:43.971Z,997.78
2019-03-06T06:44:43.997Z,997.79
2019-03-06T06:45:44.020Z,997.75
2019-03-06T06:46:44.051Z,997.71
2019-03-06T06:47:44.070Z,997.69
2019-03-06T06:48:44.090Z,997.61
2019-03-06T06:49:44.111Z,997.54
2019-03-06T06:50:44.138Z,997.56
2019-03-06T06:51:44.160Z,997.55
2019-03-06T06:52:44.181Z,997.56
2019-03-06T06:53:44.209Z,997.56
2019-03-06T06:54:44.233Z,997.54
2019-03-06T06:55:44.253Z,997.51
2019-03-06T06:56:44.283Z,997.53
2019-03-06T06:57:44.304Z,997.54
2019-03-06T06:58:44.328Z,997.52
2019-03-06T06:59:44.351Z,997.53
2019-03-06T07:00:44.373Z,997.42
2019-03-06T07:01:44.398Z,997.46
2019-03-06T07:02:44.424Z,997.43
2019-03-06T07:03:44.447Z,997.46
2019-03-06T07:04:44.469Z,997.40
2019-03-06T07:05:44.497Z,997.33
2019-03-06T07:06:44.527Z,997.40
2019-03-06T07:07:44.544Z,997.36
2019-03-06T07:08:44.566Z,997.37
2019-03-06T07:09:44.591Z,997.37
2019-03-06T07:10:44.617Z,997.26
2019-03-06T07:11:44.641Z,997.29
2019-03-06T07:12:44.664Z,997.32
2019-03-06T07:13:44.689Z,997.27
2019-03-06T07:14:44.710Z,997.24
2019-03-06T07:15:44.737Z,997.22
2019-03-06T07:16:44.759Z,997.26
2019-03-06T07:17:44.782Z,997.23
2019-03-06T07:18:44.813Z,997.25
2019-03-06T07:19:44.832Z,997.21
2019-03-06T07:20:44.860Z,997.22
2019-03-06T07:21:44.880Z,997.18
2019-03-06T07:22:44.907Z,997.10
2019-03-06T07:23:44.929Z,997.07
2019-03-06T07:24:44.954Z,997.10
2019-03-06T07:25:44.982Z,997.05
2019-03-06T07:26:45.010Z,997.02
2019-03-06T07:27:45.051Z,997.00
2019-03-06T07:28:45.051Z,997.03
2019-03-06T07:29:45.079Z,997.01
2019-03-06T07:30:45.099Z,997.11
2019-03-06T07:31:45.125Z,997.05
2019-03-06T07:32:45.148Z,996.96
2019-03-06T07:33:45.177Z,997.00
2019-03-06T07:34:45.198Z,996.93
2019-03-06T07:35:45.222Z,996.86
2019-03-06T07:36:45.246Z,996.90
2019-03-06T07:37:45.270Z,996.91
2019-03-06T07:38:45.295Z,996.86
2019-03-06T07:39:45.319Z,996.91
2019-03-06T07:40:45.344Z,996.93
2019-03-06T07:41:45.373Z,996.84
2019-03-06T07:42:45.400Z,996.87
2019-03-06T07:43:45.424Z,996.87
2019-03-06T07:44:45.443Z,996.83
2019-03-06T07:45:45.465Z,996.84
2019-03-06T07:46:45.490Z,996.84
2019-03-06T07:47:45.520Z,996.81
2019-03-06T07:48:45.544Z,996.81
2019-03-06T07:49:45.685Z,996.88
2019-03-06T07:50:45.591Z,996.84
2019-03-06T07:51:45.612Z,996.92
2019-03-06T07:52:45.643Z,996.88
2019-03-06T07:53:45.664Z,996.85
2019-03-06T07:54:45.694Z,996.88
2019-03-06T07:55:45.714Z,996.83
2019-03-06T07:56:45.736Z,996.86
2019-03-06T07:57:45.763Z,996.88
2019-03-06T07:58:45.786Z,996.84
2019-03-06T07:59:45.812Z,996.88
2019-03-06T08:00:45.837Z,996.92
2019-03-06T08:01:45.874Z,996.90
2019-03-06T08:02:45.887Z,996.89
2019-03-06T08:03:47.124Z,996.86
2019-03-06T08:04:45.938Z,996.95
2019-03-06T08:05:45.960Z,996.85
2019-03-06T08:06:45.986Z,996.85
2019-03-06T08:07:46.426Z,996.84
2019-03-06T08:08:46.043Z,996.92
2019-03-06T08:09:46.061Z,996.87
2019-03-06T08:10:46.083Z,996.83
2019-03-06T08:11:46.115Z,996.82
2019-03-06T08:12:46.131Z,996.78
2019-03-06T08:13:47.141Z,996.81
2019-03-06T08:14:46.188Z,996.72
2019-03-06T08:15:46.206Z,996.75
2019-03-06T08:16:46.247Z,996.72
2019-03-06T08:17:46.257Z,996.70
2019-03-06T08:18:46.284Z,996.74
2019-03-06T08:19:46.309Z,996.69
2019-03-06T08:20:46.333Z,996.62
2019-03-06T08:21:46.359Z,996.65
2019-03-06T08:22:46.385Z,996.68
2019-03-06T08:23:46.406Z,996.64
2019-03-06T08:24:46.431Z,996.57
2019-03-06T08:25:46.460Z,996.62
2019-03-06T08:26:46.486Z,996.54
2019-03-06T08:27:46.520Z,996.53
2019-03-06T08:28:46.534Z,996.52
2019-03-06T08:29:46.559Z,996.57
2019-03-06T08:30:46.589Z,996.55
2019-03-06T08:31:46.608Z,996.53
2019-03-06T08:32:46.641Z,996.54
2019-03-06T08:33:46.667Z,996.47
2019-03-06T08:34:46.686Z,996.52
2019-03-06T08:35:46.712Z,996.44
2019-03-06T08:36:46.734Z,996.48
2019-03-06T08:37:46.762Z,996.45
2019-03-06T08:38:46.787Z,996.35
2019-03-06T08:39:46.810Z,996.35
2019-03-06T08:40:46.840Z,996.29
2019-03-06T08:41:46.862Z,996.26
2019-03-06T08:42:46.889Z,996.33
2019-03-06T08:43:46.911Z,996.31
2019-03-06T08:44:46.943Z,996.24
2019-03-06T08:45:46.966Z,996.27
2019-03-06T08:46:46.997Z,996.28
2019-03-06T08:47:47.015Z,996.20
2019-03-06T08:48:47.047Z,996.18
2019-03-06T08:49:47.067Z,996.18
2019-03-06T08:50:47.099Z,996.18
2019-03-06T08:51:47.117Z,996.15
2019-03-06T08:52:47.145Z,996.11
2019-03-06T08:53:47.171Z,996.09
2019-03-06T08:54:47.199Z,996.17
2019-03-06T08:55:47.221Z,996.11
2019-03-06T08:56:47.245Z,996.14
2019-03-06T08:57:47.271Z,996.12
2019-03-06T08:58:47.300Z,996.09
2019-03-06T08:59:47.324Z,996.05
2019-03-06T09:00:47.348Z,996.05
2019-03-06T09:01:47.377Z,995.99
2019-03-06T09:02:47.401Z,996.00
2019-03-06T09:03:47.427Z,995.94
2019-03-06T09:04:47.450Z,995.91
2019-03-06T09:05:47.477Z,995.87
2019-03-06T09:06:47.503Z,995.88
2019-03-06T09:07:47.537Z,995.90
2019-03-06T09:08:47.562Z,995.84
2019-03-06T09:09:47.579Z,995.83
2019-03-06T09:10:47.608Z,995.84
2019-03-06T09:11:47.639Z,995.83
2019-03-06T09:12:47.666Z,995.78
2019-03-06T09:13:47.684Z,995.87
2019-03-06T09:14:47.712Z,995.77
2019-03-06T09:15:47.735Z,995.77
2019-03-06T09:16:47.761Z,995.75
2019-03-06T09:17:47.794Z,995.72
2019-03-06T09:18:47.813Z,995.69
2019-03-06T09:19:47.838Z,995.68
2019-03-06T09:20:47.864Z,995.70
2019-03-06T09:21:47.898Z,995.79
2019-03-06T09:22:47.916Z,995.80
2019-03-06T09:23:48.146Z,995.77
2019-03-06T09:24:47.965Z,995.82
2019-03-06T09:25:48.000Z,995.76
2019-03-06T09:26:48.021Z,995.70
2019-03-06T09:27:48.044Z,995.73
2019-03-06T09:28:48.120Z,995.74
2019-03-06T09:29:48.100Z,995.69
2019-03-06T09:30:48.123Z,995.64
2019-03-06T09:31:48.147Z,995.63
2019-03-06T09:32:48.171Z,995.59
2019-03-06T09:33:48.209Z,995.60
2019-03-06T09:34:48.225Z,995.52
2019-03-06T09:35:49.462Z,995.48
2019-03-06T09:36:50.908Z,995.45
2019-03-06T09:37:48.298Z,995.41
2019-03-06T09:38:48.725Z,995.44
2019-03-06T09:39:48.360Z,995.38
2019-03-06T09:40:48.376Z,995.42
2019-03-06T09:41:48.400Z,995.47
2019-03-06T09:42:48.426Z,995.45
2019-03-06T09:43:48.453Z,995.47
2019-03-06T09:44:48.478Z,995.41
2019-03-06T09:45:48.502Z,995.34
2019-03-06T09:46:48.534Z,995.36
2019-03-06T09:47:48.556Z,995.34
2019-03-06T09:48:48.580Z,995.31
2019-03-06T09:49:48.609Z,995.25
2019-03-06T09:50:48.635Z,995.27
2019-03-06T09:51:48.661Z,995.28
2019-03-06T09:52:48.688Z,995.17
2019-03-06T09:53:48.714Z,995.18
2019-03-06T09:54:48.741Z,995.08
2019-03-06T09:55:48.765Z,995.06
2019-03-06T09:56:48.792Z,995.06
2019-03-06T09:57:48.819Z,994.99
2019-03-06T09:58:48.848Z,995.03
2019-03-06T09:59:48.872Z,994.95
2019-03-06T10:00:48.912Z,994.85
2019-03-06T10:01:48.929Z,994.83
2019-03-06T10:02:48.957Z,994.81
2019-03-06T10:03:48.982Z,994.75
2019-03-06T10:04:49.009Z,994.75
2019-03-06T10:05:49.037Z,994.75
2019-03-06T10:06:49.063Z,994.74
2019-03-06T10:07:49.089Z,994.80
2019-03-06T10:08:49.117Z,994.76
2019-03-06T10:09:49.152Z,994.80
2019-03-06T10:10:57.268Z,994.69
2019-03-06T10:11:49.198Z,994.71
2019-03-06T10:12:49.226Z,994.66
2019-03-06T10:13:49.259Z,994.74
2019-03-06T10:14:49.280Z,994.57
2019-03-06T10:15:49.309Z,994.56
2019-03-06T10:16:49.339Z,994.48
2019-03-06T10:17:49.371Z,994.46
2019-03-06T10:18:49.389Z,994.42
2019-03-06T10:19:49.460Z,994.47
2019-03-06T10:20:49.446Z,994.53
2019-03-06T10:21:49.472Z,994.55
2019-03-06T10:22:49.501Z,994.74
2019-03-06T10:23:49.536Z,994.62
2019-03-06T10:24:49.568Z,994.62
2019-03-06T10:25:49.582Z,994.50
2019-03-06T10:26:49.613Z,994.46
2019-03-06T10:27:49.639Z,994.56
2019-03-06T10:28:49.669Z,994.54
2019-03-06T10:29:49.698Z,994.50
2019-03-06T10:30:49.722Z,994.50
2019-03-06T10:31:49.757Z,994.43
2019-03-06T10:32:49.778Z,994.54
2019-03-06T10:33:49.822Z,994.62
2019-03-06T10:34:49.839Z,994.42
2019-03-06T10:35:49.865Z,994.21
2019-03-06T10:36:49.902Z,994.50
2019-03-06T10:37:49.933Z,994.26
2019-03-06T10:38:49.956Z,994.30
2019-03-06T10:39:49.987Z,994.07
2019-03-06T10:40:50.014Z,994.19
2019-03-06T10:41:50.043Z,994.08
2019-03-06T10:42:50.075Z,994.14
2019-03-06T10:43:50.099Z,994.15
2019-03-06T10:44:50.132Z,994.01
2019-03-06T10:45:50.162Z,993.97
2019-03-06T10:46:50.189Z,993.84
2019-03-06T10:47:50.220Z,993.87
2019-03-06T10:48:50.247Z,993.76
2019-03-06T10:49:50.285Z,993.63
2019-03-06T10:50:50.306Z,993.68
2019-03-06T10:51:50.338Z,993.63
2019-03-06T10:52:50.364Z,993.66
2019-03-06T10:53:50.397Z,993.72
2019-03-06T10:54:50.424Z,993.73
2019-03-06T10:55:50.457Z,993.66
2019-03-06T10:56:50.484Z,993.66
2019-03-06T10:57:50.512Z,993.82
2019-03-06T10:58:50.544Z,993.69
2019-03-06T10:59:50.567Z,993.71
2019-03-06T11:00:50.597Z,993.74
2019-03-06T11:01:50.625Z,993.63
2019-03-06T11:02:50.657Z,993.58
2019-03-06T11:03:50.684Z,993.61
2019-03-06T11:04:50.719Z,993.61
2019-03-06T11:05:50.741Z,993.51
2019-03-06T11:06:50.768Z,993.68
2019-03-06T11:07:50.796Z,993.63
2019-03-06T11:08:50.839Z,993.67
2019-03-06T11:09:50.860Z,993.63
2019-03-06T11:10:50.893Z,993.59
2019-03-06T11:11:50.909Z,993.58
2019-03-06T11:12:50.941Z,993.67
2019-03-06T11:13:50.974Z,993.64
2019-03-06T11:14:50.997Z,993.64
2019-03-06T11:15:55.686Z,993.54
2019-03-06T11:16:51.050Z,993.60
2019-03-06T11:17:51.080Z,993.54
2019-03-06T11:18:51.107Z,993.56
2019-03-06T11:19:51.131Z,993.59
2019-03-06T11:20:51.162Z,993.43
2019-03-06T11:21:51.191Z,993.55
2019-03-06T11:22:51.216Z,993.59
2019-03-06T11:23:51.245Z,993.44
2019-03-06T11:24:51.272Z,993.53
2019-03-06T11:25:51.303Z,993.44
2019-03-06T11:26:51.330Z,993.46
2019-03-06T11:27:51.358Z,993.48
2019-03-06T11:28:51.390Z,993.44
2019-03-06T11:29:51.414Z,993.43
2019-03-06T11:30:51.442Z,993.49
2019-03-06T11:31:51.469Z,993.46
2019-03-06T11:32:54.446Z,993.46
2019-03-06T11:33:51.526Z,993.46
2019-03-06T11:34:51.560Z,993.46
2019-03-06T11:35:51.789Z,993.57
2019-03-06T11:36:51.608Z,993.58
2019-03-06T11:37:51.639Z,993.51
2019-03-06T11:38:51.668Z,993.45
2019-03-06T11:39:51.694Z,993.48
2019-03-06T11:40:51.725Z,993.46
2019-03-06T11:41:51.754Z,993.37
2019-03-06T11:42:51.785Z,993.40
2019-03-06T11:43:51.811Z,993.34
2019-03-06T11:44:51.839Z,993.41
2019-03-06T11:45:51.873Z,993.28
2019-03-06T11:46:53.079Z,993.22
2019-03-06T11:47:51.931Z,993.17
2019-03-06T11:48:51.961Z,993.28
2019-03-06T11:49:51.984Z,993.29
2019-03-06T11:50:52.021Z,993.34
2019-03-06T11:51:52.041Z,993.35
2019-03-06T11:52:52.070Z,993.39
2019-03-06T11:53:52.100Z,993.30
2019-03-06T11:54:52.138Z,993.30
2019-03-06T11:55:52.158Z,993.18
2019-03-06T11:56:52.191Z,993.01
2019-03-06T11:57:52.220Z,992.97
2019-03-06T11:58:52.255Z,992.98
2019-03-06T11:59:52.280Z,992.83
2019-03-06T12:00:52.306Z,992.78
2019-03-06T12:01:52.334Z,992.74
2019-03-06T12:02:52.366Z,992.70
2019-03-06T12:03:52.394Z,992.70
2019-03-06T12:04:52.423Z,992.63
2019-03-06T12:05:52.451Z,992.65
2019-03-06T12:06:52.479Z,992.55
2019-03-06T12:07:52.514Z,992.50
2019-03-06T12:08:52.541Z,992.53
2019-03-06T12:09:52.567Z,992.70
2019-03-06T12:10:52.596Z,992.49
2019-03-06T12:11:52.627Z,992.51
2019-03-06T12:12:52.654Z,992.45
2019-03-06T12:13:52.685Z,992.40
2019-03-06T12:14:52.720Z,992.35
2019-03-06T12:15:52.742Z,992.32
2019-03-06T12:16:52.774Z,992.35
2019-03-06T12:17:52.803Z,992.29
2019-03-06T12:18:52.828Z,992.30
2019-03-06T12:19:52.857Z,992.27
2019-03-06T12:20:52.885Z,992.19
2019-03-06T12:21:52.915Z,992.23
2019-03-06T12:22:52.949Z,992.18